createdAt,value
2017-10-26T00:01:36.168Z,15.70
2017-10-26T00:04:04.858Z,15.70
2017-10-26T00:06:33.193Z,15.70
2017-10-26T00:09:01.480Z,15.80
2017-10-26T00:11:29.782Z,15.80
2017-10-26T00:13:58.109Z,15.70
2017-10-26T00:16:26.396Z,15.60
2017-10-26T00:18:54.674Z,15.60
2017-10-26T00:21:23.046Z,15.60
2017-10-26T00:23:51.733Z,15.60
2017-10-26T00:26:20.015Z,15.50
2017-10-26T00:28:49.491Z,15.50
2017-10-26T00:31:18.174Z,15.40
2017-10-26T00:33:46.463Z,15.50
2017-10-26T00:36:14.814Z,15.50
2017-10-26T00:38:44.607Z,15.60
2017-10-26T00:41:12.896Z,15.70
2017-10-26T00:43:41.227Z,15.70
2017-10-26T00:46:09.523Z,15.70
2017-10-26T00:48:37.804Z,15.70
2017-10-26T00:51:06.173Z,15.60
2017-10-26T00:53:35.594Z,15.70
2017-10-26T00:56:04.675Z,15.70
2017-10-26T00:58:33.026Z,15.80
2017-10-26T01:01:01.717Z,15.80
2017-10-26T01:03:30.403Z,15.80
2017-10-26T01:05:58.795Z,15.80
2017-10-26T01:08:27.087Z,15.80
2017-10-26T01:10:56.155Z,15.80
2017-10-26T01:13:25.986Z,15.90
2017-10-26T01:15:55.047Z,15.90
2017-10-26T01:18:24.843Z,15.80
2017-10-26T01:20:54.305Z,15.80
2017-10-26T01:23:22.588Z,15.80
2017-10-26T01:25:51.639Z,15.80
2017-10-26T01:28:19.971Z,15.80
2017-10-26T01:30:49.027Z,15.80
2017-10-26T01:33:18.092Z,15.80
2017-10-26T01:35:47.203Z,15.80
2017-10-26T01:40:45.406Z,15.80
2017-10-26T01:43:14.160Z,15.80
2017-10-26T01:45:42.447Z,15.80
2017-10-26T01:48:10.727Z,15.70
2017-10-26T01:50:39.819Z,15.70
2017-10-26T01:53:08.100Z,15.70
2017-10-26T01:55:36.384Z,15.70
2017-10-26T01:58:04.724Z,15.70
2017-10-26T02:00:33.010Z,15.60
2017-10-26T02:03:01.312Z,15.50
2017-10-26T02:05:30.431Z,15.40
2017-10-26T02:07:58.721Z,15.40
2017-10-26T02:10:27.014Z,15.50
2017-10-26T02:12:55.367Z,15.50
2017-10-26T02:15:25.166Z,15.50
2017-10-26T02:17:53.455Z,15.50
2017-10-26T02:20:21.804Z,15.50
2017-10-26T02:22:50.099Z,15.50
2017-10-26T02:25:18.387Z,15.50
2017-10-26T02:27:46.727Z,15.50
2017-10-26T02:30:27.445Z,15.40
2017-10-26T02:32:55.794Z,15.40
2017-10-26T02:35:24.077Z,15.40
2017-10-26T02:40:21.919Z,15.60
2017-10-26T02:42:50.206Z,15.60
2017-10-26T02:45:18.496Z,15.60
2017-10-26T02:47:48.358Z,15.50
2017-10-26T02:50:16.641Z,15.40
2017-10-26T02:52:44.927Z,15.30
2017-10-26T02:55:13.267Z,15.30
2017-10-26T02:57:41.550Z,15.30
2017-10-26T03:00:09.839Z,15.40
2017-10-26T03:02:38.155Z,15.40
2017-10-26T03:05:07.203Z,15.50
2017-10-26T03:10:05.059Z,15.50
2017-10-26T03:12:33.347Z,15.50
2017-10-26T03:15:01.650Z,15.60
2017-10-26T03:17:31.057Z,15.50
2017-10-26T03:19:59.743Z,15.50
2017-10-26T03:22:28.035Z,15.50
2017-10-26T03:24:56.378Z,15.60
2017-10-26T03:27:24.679Z,15.60
2017-10-26T03:29:52.972Z,15.60
2017-10-26T03:32:21.303Z,15.50
2017-10-26T03:34:49.603Z,15.60
2017-10-26T03:37:19.021Z,15.50
2017-10-26T03:39:47.358Z,15.50
2017-10-26T03:42:16.429Z,15.50
2017-10-26T03:44:45.851Z,15.50
2017-10-26T03:47:14.215Z,15.50
2017-10-26T03:49:43.259Z,15.50
2017-10-26T03:52:12.339Z,15.50
2017-10-26T03:54:41.438Z,15.50
2017-10-26T03:57:10.870Z,15.50
2017-10-26T03:59:39.564Z,15.50
2017-10-26T04:02:07.898Z,15.40
2017-10-26T04:07:05.707Z,15.30
2017-10-26T04:09:34.031Z,15.40
2017-10-26T04:12:02.325Z,15.40
2017-10-26T04:14:30.608Z,15.40
2017-10-26T04:16:58.960Z,15.30
2017-10-26T04:19:27.247Z,15.40
2017-10-26T04:24:25.484Z,15.40
2017-10-26T04:26:53.767Z,15.40
2017-10-26T04:29:22.058Z,15.40
2017-10-26T04:31:51.166Z,15.40
2017-10-26T04:34:19.451Z,15.40
2017-10-26T04:36:48.508Z,15.40
2017-10-26T04:39:16.843Z,15.40
2017-10-26T04:41:45.902Z,15.30
2017-10-26T04:44:14.195Z,15.30
2017-10-26T04:46:42.511Z,15.30
2017-10-26T04:49:10.798Z,15.40
2017-10-26T04:51:39.083Z,15.40
2017-10-26T04:54:08.185Z,15.40
2017-10-26T04:56:36.480Z,15.40
2017-10-26T04:59:04.767Z,15.50
2017-10-26T05:01:33.131Z,15.50
2017-10-26T05:04:01.415Z,15.50
2017-10-26T05:06:29.703Z,15.60
2017-10-26T05:08:59.547Z,15.60
2017-10-26T05:11:28.974Z,15.60
2017-10-26T05:13:58.029Z,15.70
2017-10-26T05:16:27.116Z,15.60
2017-10-26T05:18:55.403Z,15.60
2017-10-26T05:21:24.459Z,15.60
2017-10-26T05:23:53.561Z,15.70
2017-10-26T05:26:21.874Z,15.70
2017-10-26T05:28:50.155Z,15.60
2017-10-26T05:31:19.627Z,15.70
2017-10-26T05:33:47.922Z,15.60
2017-10-26T05:36:16.207Z,15.70
2017-10-26T05:38:44.555Z,15.70
2017-10-26T05:41:12.844Z,15.80
2017-10-26T05:43:41.130Z,15.80
2017-10-26T05:46:09.463Z,15.70
2017-10-26T05:48:37.747Z,15.80
2017-10-26T05:51:06.798Z,15.80
2017-10-26T05:53:35.922Z,15.70
2017-10-26T05:58:34.123Z,15.80
2017-10-26T06:01:02.455Z,15.80
2017-10-26T06:03:31.134Z,15.70
2017-10-26T06:05:59.424Z,15.80
2017-10-26T06:08:27.762Z,15.70
2017-10-26T06:10:56.052Z,15.80
2017-10-26T06:13:24.334Z,15.80
2017-10-26T06:15:52.710Z,15.70
2017-10-26T06:18:21.776Z,15.70
2017-10-26T06:20:50.063Z,15.70
2017-10-26T06:23:18.399Z,15.70
2017-10-26T06:25:46.683Z,15.70
2017-10-26T06:28:14.967Z,15.80
2017-10-26T06:30:43.299Z,15.80
2017-10-26T06:33:11.591Z,15.80
2017-10-26T06:35:41.012Z,15.80
2017-10-26T06:38:09.734Z,15.80
2017-10-26T06:40:38.787Z,15.80
2017-10-26T06:43:07.072Z,15.80
2017-10-26T06:45:35.412Z,15.70
2017-10-26T06:48:05.207Z,15.70
2017-10-26T06:50:33.504Z,15.70
2017-10-26T06:53:01.865Z,15.80
2017-10-26T06:55:30.152Z,15.80
2017-10-26T06:57:59.574Z,15.90
2017-10-26T07:00:28.662Z,15.80
2017-10-26T07:02:56.944Z,15.80
2017-10-26T07:05:26.363Z,15.80
2017-10-26T07:07:54.712Z,15.80
2017-10-26T07:10:22.999Z,15.90
2017-10-26T07:12:51.290Z,15.90
2017-10-26T07:15:19.616Z,15.90
2017-10-26T07:17:48.667Z,15.80
2017-10-26T07:20:16.964Z,15.70
2017-10-26T07:22:46.801Z,15.80
2017-10-26T07:27:44.994Z,15.90
2017-10-26T07:30:13.367Z,16.00
2017-10-26T07:32:41.654Z,16.10
2017-10-26T07:35:09.942Z,16.10
2017-10-26T07:37:39.407Z,16.10
2017-10-26T07:40:07.691Z,16.10
2017-10-26T07:42:35.984Z,16.10
2017-10-26T07:45:04.719Z,16.10
2017-10-26T07:47:33.007Z,16.10
2017-10-26T07:52:30.858Z,16.10
2017-10-26T07:54:59.543Z,16.20
2017-10-26T07:59:58.535Z,16.30
2017-10-26T08:02:26.822Z,16.30
2017-10-26T08:07:24.681Z,16.40
2017-10-26T08:09:52.958Z,16.40
2017-10-26T08:12:21.239Z,16.40
2017-10-26T08:14:49.577Z,16.40
2017-10-26T08:17:17.866Z,16.50
2017-10-26T08:19:46.159Z,16.50
2017-10-26T08:22:14.519Z,16.50
2017-10-26T08:24:43.587Z,16.60
2017-10-26T08:27:11.872Z,16.60
2017-10-26T08:29:40.210Z,16.70
2017-10-26T08:34:38.029Z,16.70
2017-10-26T08:37:07.127Z,16.80
2017-10-26T08:39:36.176Z,16.80
2017-10-26T08:42:04.468Z,16.90
2017-10-26T08:44:32.806Z,16.90
2017-10-26T08:47:02.611Z,17.00
2017-10-26T08:49:30.902Z,17.00
2017-10-26T08:51:59.218Z,17.10
2017-10-26T08:54:27.511Z,17.10
2017-10-26T08:56:55.786Z,17.10
2017-10-26T08:59:24.927Z,17.20
2017-10-26T09:01:53.210Z,17.20
2017-10-26T09:04:22.268Z,17.10
2017-10-26T09:06:50.598Z,17.30
2017-10-26T09:09:20.067Z,17.40
2017-10-26T09:14:18.316Z,17.50
2017-10-26T09:16:46.598Z,17.50
2017-10-26T09:19:16.028Z,17.50
2017-10-26T09:21:45.133Z,17.40
2017-10-26T09:24:14.923Z,17.60
2017-10-26T09:26:44.348Z,17.70
2017-10-26T09:29:12.695Z,17.90
2017-10-26T09:31:40.975Z,17.80
2017-10-26T09:34:09.259Z,17.80
2017-10-26T09:36:37.591Z,17.80
2017-10-26T09:39:06.650Z,17.80
2017-10-26T09:41:35.713Z,17.80
2017-10-26T09:44:04.036Z,17.90
2017-10-26T09:46:32.315Z,17.90
2017-10-26T09:49:01.736Z,18.00
2017-10-26T09:51:30.715Z,18.00
2017-10-26T09:53:59.390Z,17.90
2017-10-26T09:56:28.446Z,17.90
2017-10-26T09:58:57.563Z,18.00
2017-10-26T10:01:26.982Z,18.10
2017-10-26T10:03:56.031Z,18.00
2017-10-26T10:06:24.378Z,17.90
2017-10-26T10:11:22.175Z,18.00
2017-10-26T10:13:50.506Z,17.80
2017-10-26T10:16:18.800Z,17.90
2017-10-26T10:21:16.646Z,17.70
2017-10-26T10:23:44.925Z,18.00
2017-10-26T10:26:13.217Z,18.10
2017-10-26T10:28:41.574Z,18.00
2017-10-26T10:31:09.859Z,18.10
2017-10-26T10:33:38.143Z,18.20
2017-10-26T10:36:06.473Z,18.30
2017-10-26T10:38:36.262Z,18.20
2017-10-26T10:41:04.950Z,18.20
2017-10-26T10:43:34.810Z,18.20
2017-10-26T10:46:03.086Z,18.20
2017-10-26T10:48:31.766Z,18.20
2017-10-26T10:51:00.090Z,18.30
2017-10-26T10:55:58.788Z,18.20
2017-10-26T10:58:27.126Z,18.20
2017-10-26T11:00:55.403Z,18.10
2017-10-26T11:03:23.689Z,18.10
2017-10-26T11:05:52.774Z,18.10
2017-10-26T11:08:21.827Z,18.10
2017-10-26T11:10:50.108Z,18.10
2017-10-26T11:13:19.567Z,18.20
2017-10-26T11:15:47.858Z,18.30
2017-10-26T11:23:15.619Z,18.40
2017-10-26T11:25:43.908Z,18.40
2017-10-26T11:28:13.303Z,18.50
2017-10-26T11:30:41.979Z,18.60
2017-10-26T11:33:10.267Z,18.60
2017-10-26T11:35:38.593Z,18.60
2017-10-26T11:38:06.880Z,18.60
2017-10-26T11:40:35.170Z,18.60
2017-10-26T11:43:04.265Z,18.60
2017-10-26T11:45:32.544Z,18.60
2017-10-26T11:48:00.818Z,18.70
2017-10-26T11:50:29.223Z,18.70
2017-10-26T11:52:57.516Z,18.80
2017-10-26T11:55:25.799Z,18.90
2017-10-26T11:57:56.347Z,18.90
2017-10-26T12:02:55.297Z,19.00
2017-10-26T12:05:24.398Z,19.00
2017-10-26T12:07:52.682Z,19.00
2017-10-26T12:10:20.967Z,19.00
2017-10-26T12:12:49.712Z,19.00
2017-10-26T12:15:17.999Z,19.00
2017-10-26T12:17:46.286Z,19.00
2017-10-26T12:20:15.012Z,19.10
2017-10-26T12:22:44.066Z,19.20
2017-10-26T12:27:42.310Z,19.30
2017-10-26T12:30:11.367Z,19.50
2017-10-26T12:32:40.786Z,19.70
2017-10-26T12:35:09.118Z,19.70
2017-10-26T12:37:37.400Z,19.70
2017-10-26T12:40:05.682Z,19.70
2017-10-26T12:42:34.016Z,19.80
2017-10-26T12:45:02.318Z,19.80
2017-10-26T12:47:31.375Z,19.80
2017-10-26T12:50:00.492Z,19.80
2017-10-26T12:54:58.290Z,19.80
2017-10-26T12:57:27.387Z,20.00
2017-10-26T12:59:56.063Z,20.00
2017-10-26T13:02:24.354Z,20.10
2017-10-26T13:04:52.691Z,20.10
2017-10-26T13:07:22.479Z,20.10
2017-10-26T13:09:50.764Z,20.20
2017-10-26T13:12:19.095Z,20.30
2017-10-26T13:14:47.383Z,20.30
2017-10-26T13:17:15.673Z,20.30
2017-10-26T13:19:44.019Z,20.40
2017-10-26T13:22:13.442Z,20.50
2017-10-26T13:24:41.727Z,20.60
2017-10-26T13:27:10.038Z,20.50
2017-10-26T13:29:38.327Z,20.40
2017-10-26T13:32:07.366Z,20.40
2017-10-26T13:34:35.695Z,20.50
2017-10-26T13:37:04.749Z,20.40
2017-10-26T13:39:33.825Z,20.50
2017-10-26T13:44:32.448Z,20.60
2017-10-26T13:47:00.726Z,20.30
2017-10-26T13:49:29.054Z,20.20
2017-10-26T13:51:57.338Z,20.10
2017-10-26T13:54:25.619Z,20.10
2017-10-26T13:56:54.747Z,20.10
2017-10-26T13:59:24.179Z,20.10
2017-10-26T14:01:52.458Z,20.00
2017-10-26T14:04:21.558Z,20.10
2017-10-26T14:06:50.987Z,20.20
2017-10-26T14:09:20.046Z,20.10
2017-10-26T14:11:48.363Z,20.00
2017-10-26T14:14:17.421Z,20.00
2017-10-26T14:16:45.699Z,19.80
2017-10-26T14:19:14.034Z,19.90
2017-10-26T14:21:43.086Z,19.80
2017-10-26T14:24:11.772Z,19.60
2017-10-26T14:26:40.863Z,19.60
2017-10-26T14:29:10.654Z,19.60
2017-10-26T14:31:38.943Z,19.60
2017-10-26T14:36:36.840Z,19.50
2017-10-26T14:39:05.113Z,19.50
2017-10-26T14:41:33.449Z,19.40
2017-10-26T14:44:21.300Z,19.40
2017-10-26T14:46:49.629Z,19.30
2017-10-26T14:49:18.677Z,19.30
2017-10-26T14:51:46.979Z,19.20
2017-10-26T14:54:15.319Z,19.20
2017-10-26T14:56:43.609Z,19.20
2017-10-26T14:59:12.664Z,19.30
2017-10-26T15:01:41.378Z,19.10
2017-10-26T15:06:39.579Z,18.80
2017-10-26T15:09:07.960Z,18.90
2017-10-26T15:11:36.250Z,18.90
2017-10-26T15:14:04.549Z,18.90
2017-10-26T15:16:32.906Z,18.80
2017-10-26T15:19:01.184Z,18.60
2017-10-26T15:21:29.476Z,18.50
2017-10-26T15:23:58.939Z,18.50
2017-10-26T15:26:27.630Z,18.30
2017-10-26T15:28:56.679Z,18.10
2017-10-26T15:33:54.931Z,17.90
2017-10-26T15:36:23.219Z,17.90
2017-10-26T15:38:51.555Z,17.90
2017-10-26T15:41:20.978Z,17.90
2017-10-26T15:43:50.030Z,17.90
2017-10-26T15:46:18.355Z,17.90
2017-10-26T15:48:47.036Z,17.90
2017-10-26T15:51:15.724Z,17.80
2017-10-26T15:56:13.975Z,17.70
2017-10-26T15:58:43.027Z,17.60
2017-10-26T16:01:12.488Z,17.60
2017-10-26T16:03:40.772Z,17.50
2017-10-26T16:06:09.068Z,17.50
2017-10-26T16:08:37.397Z,17.50
2017-10-26T16:11:07.194Z,17.50
2017-10-26T16:13:35.475Z,17.50
2017-10-26T16:16:03.815Z,17.50
2017-10-26T16:21:03.179Z,17.40
2017-10-26T16:23:31.498Z,17.40
2017-10-26T16:25:59.786Z,17.50
2017-10-26T16:28:28.135Z,17.40
2017-10-26T16:30:57.195Z,17.30
2017-10-26T16:33:25.483Z,17.30
2017-10-26T16:35:53.815Z,17.40
2017-10-26T16:38:22.106Z,17.30
2017-10-26T16:40:50.391Z,17.30
2017-10-26T16:43:18.746Z,17.30
2017-10-26T16:45:48.539Z,17.30
2017-10-26T16:48:16.832Z,17.30
2017-10-26T16:53:15.451Z,17.20
2017-10-26T16:55:43.733Z,17.20
2017-10-26T16:58:12.063Z,17.10
2017-10-26T17:00:41.123Z,17.10
2017-10-26T17:03:10.923Z,17.10
2017-10-26T17:05:39.271Z,17.00
2017-10-26T17:11:08.071Z,16.90
2017-10-26T17:13:36.360Z,16.80
2017-10-26T17:16:05.416Z,16.80
2017-10-26T17:18:34.499Z,16.70
2017-10-26T17:21:03.923Z,16.70
2017-10-26T17:23:32.616Z,16.70
2017-10-26T17:26:00.955Z,16.60
2017-10-26T17:28:29.239Z,16.70
2017-10-26T17:30:59.036Z,16.70
2017-10-26T17:33:27.368Z,16.70
2017-10-26T17:35:56.423Z,16.70
2017-10-26T17:40:54.667Z,16.70
2017-10-26T17:43:22.958Z,16.70
2017-10-26T17:45:51.246Z,16.70
2017-10-26T17:48:19.899Z,16.70
2017-10-26T17:50:49.036Z,16.70
2017-10-26T17:53:17.317Z,16.60
2017-10-26T17:55:46.420Z,16.50
2017-10-26T17:58:16.263Z,16.40
2017-10-26T18:00:44.682Z,16.30
2017-10-26T18:03:13.455Z,16.30
2017-10-26T18:05:42.172Z,16.30
2017-10-26T18:08:11.280Z,16.30
2017-10-26T18:10:39.998Z,16.30
2017-10-26T18:13:08.299Z,16.30
2017-10-26T18:15:37.078Z,16.40
2017-10-26T18:18:05.542Z,16.40
2017-10-26T18:23:03.446Z,16.50
2017-10-26T18:25:32.540Z,16.50
2017-10-26T18:28:00.829Z,16.40
2017-10-26T18:30:29.338Z,16.40
2017-10-26T18:32:57.757Z,16.40
2017-10-26T18:35:27.166Z,16.40
2017-10-26T18:37:55.459Z,16.40
2017-10-26T18:40:25.290Z,16.40
2017-10-26T18:42:54.342Z,16.30
2017-10-26T18:47:53.114Z,16.30
2017-10-26T18:50:21.886Z,16.30
2017-10-26T18:52:50.930Z,16.30
2017-10-26T18:55:19.301Z,16.30
2017-10-26T18:57:48.726Z,16.40
2017-10-26T19:00:17.097Z,16.40
2017-10-26T19:02:45.447Z,16.30
2017-10-26T19:05:14.131Z,16.40
2017-10-26T19:07:42.500Z,16.40
2017-10-26T19:10:10.827Z,16.40
2017-10-26T19:12:39.149Z,16.40
2017-10-26T19:15:07.430Z,16.30
2017-10-26T19:17:35.766Z,16.30
2017-10-26T19:20:05.630Z,16.30
2017-10-26T19:22:33.905Z,16.30
2017-10-26T19:25:03.415Z,16.30
2017-10-26T19:27:31.707Z,16.30
2017-10-26T19:30:00.044Z,16.40
2017-10-26T19:32:28.378Z,16.30
2017-10-26T19:34:56.663Z,16.30
2017-10-26T19:37:24.950Z,16.30
2017-10-26T19:39:54.038Z,16.30
2017-10-26T19:42:24.767Z,16.30
2017-10-26T19:44:54.219Z,16.40
2017-10-26T19:47:22.511Z,16.40
2017-10-26T19:49:50.803Z,16.40
2017-10-26T19:52:19.140Z,16.30
2017-10-26T19:54:47.434Z,16.30
2017-10-26T19:57:15.795Z,16.30
2017-10-26T19:59:44.882Z,16.30
2017-10-26T20:02:13.170Z,16.40
2017-10-26T20:04:41.462Z,16.40
2017-10-26T20:07:09.803Z,16.40
2017-10-26T20:09:38.849Z,16.30
2017-10-26T20:12:07.906Z,16.30
2017-10-26T20:14:36.222Z,16.30
2017-10-26T20:17:04.515Z,16.30
2017-10-26T20:19:32.803Z,16.30
2017-10-26T20:22:01.994Z,16.30
2017-10-26T20:24:30.278Z,16.30
2017-10-26T20:26:59.330Z,16.20
2017-10-26T20:29:28.072Z,16.20
2017-10-26T20:31:56.375Z,16.20
2017-10-26T20:34:24.670Z,16.20
2017-10-26T20:36:53.022Z,16.10
2017-10-26T20:39:22.451Z,16.00
2017-10-26T20:41:51.499Z,15.90
2017-10-26T20:44:19.838Z,15.90
2017-10-26T20:46:48.371Z,15.90
2017-10-26T20:49:22.655Z,15.90
2017-10-26T20:51:57.342Z,15.90
2017-10-26T20:54:31.422Z,15.80
2017-10-26T20:57:05.335Z,15.70
2017-10-26T20:59:40.051Z,15.60
2017-10-26T21:05:10.557Z,15.70
2017-10-26T21:07:44.590Z,15.70
2017-10-26T21:10:19.734Z,15.60
2017-10-26T21:12:53.752Z,15.60
2017-10-26T21:15:22.075Z,15.50
2017-10-26T21:17:50.367Z,15.40
2017-10-26T21:20:18.646Z,15.40
2017-10-26T21:22:47.764Z,15.50
2017-10-26T21:27:45.564Z,15.50
2017-10-26T21:30:13.910Z,15.50
2017-10-26T21:35:11.702Z,15.40
2017-10-26T21:37:40.037Z,15.40
2017-10-26T21:40:09.086Z,15.30
2017-10-26T21:42:37.382Z,15.30
2017-10-26T21:45:06.478Z,15.30
2017-10-26T21:47:35.536Z,15.30
2017-10-26T21:50:03.860Z,15.30
2017-10-26T21:52:32.202Z,15.20
2017-10-26T21:55:01.255Z,15.20
2017-10-26T21:57:30.682Z,15.10
2017-10-26T21:59:59.021Z,15.10
2017-10-26T22:02:27.315Z,15.10
2017-10-26T22:04:57.226Z,15.10
2017-10-26T22:07:25.566Z,15.00
2017-10-26T22:09:53.851Z,15.00
2017-10-26T22:12:22.534Z,15.00
2017-10-26T22:14:51.262Z,15.00
2017-10-26T22:17:19.552Z,15.00
2017-10-26T22:19:48.239Z,15.00
2017-10-26T22:22:17.338Z,14.90
2017-10-26T22:24:46.394Z,14.90
2017-10-26T22:27:15.438Z,14.80
2017-10-26T22:29:43.771Z,14.80
2017-10-26T22:32:12.071Z,14.80
2017-10-26T22:34:41.903Z,14.90
2017-10-26T22:37:10.226Z,14.80
2017-10-26T22:39:38.512Z,14.80
2017-10-26T22:42:08.304Z,14.90
2017-10-26T22:44:36.665Z,14.80
2017-10-26T22:47:04.958Z,14.80
2017-10-26T22:49:33.251Z,14.80
2017-10-26T22:52:01.601Z,14.90
2017-10-26T22:54:32.895Z,14.80
2017-10-26T22:57:01.222Z,14.80
2017-10-26T22:59:29.507Z,14.80
2017-10-26T23:01:57.787Z,14.90
2017-10-26T23:04:27.254Z,14.90
2017-10-26T23:06:56.307Z,14.80
2017-10-26T23:11:54.551Z,14.80
2017-10-26T23:14:23.607Z,14.80
2017-10-26T23:16:51.901Z,14.80
2017-10-26T23:19:21.747Z,14.80
2017-10-26T23:21:50.038Z,14.80
2017-10-26T23:24:19.838Z,14.90
2017-10-26T23:26:48.195Z,14.80
2017-10-26T23:29:16.480Z,14.80
2017-10-26T23:31:45.524Z,14.80
2017-10-26T23:34:14.629Z,14.70
2017-10-26T23:36:44.426Z,14.80
2017-10-26T23:39:13.111Z,14.70
2017-10-26T23:41:41.456Z,14.80
2017-10-26T23:44:09.747Z,14.80
2017-10-26T23:46:38.035Z,14.80
2017-10-26T23:49:06.369Z,14.80
2017-10-26T23:51:35.418Z,14.80
2017-10-26T23:54:03.712Z,14.80
2017-10-26T23:56:32.060Z,14.80
2017-10-26T23:59:01.482Z,14.70
